sensor_id;sensor_type;location;lat;lon;timestamp;P1;durP1;ratioP1;P2;durP2;ratioP2
34541;SDS011;20784;51.332;12.410;2022-07-29T00:04:00;5.18;;;1.83;;
34541;SDS011;20784;51.332;12.410;2022-07-29T00:06:31;5.38;;;1.52;;
34541;SDS011;20784;51.332;12.410;2022-07-29T00:12:02;5.57;;;1.67;;
34541;SDS011;20784;51.332;12.410;2022-07-29T00:18:00;4.88;;;1.80;;
34541;SDS011;20784;51.332;12.410;2022-07-29T00:20:38;6.97;;;1.83;;
34541;SDS011;20784;51.332;12.410;2022-07-29T00:26:23;5.75;;;1.70;;
34541;SDS011;20784;51.332;12.410;2022-07-29T00:29:13;4.15;;;1.80;;
34541;SDS011;20784;51.332;12.410;2022-07-29T00:31:48;6.78;;;1.95;;
34541;SDS011;20784;51.332;12.410;2022-07-29T00:34:14;7.35;;;1.90;;
34541;SDS011;20784;51.332;12.410;2022-07-29T00:36:58;4.22;;;1.83;;
34541;SDS011;20784;51.332;12.410;2022-07-29T00:39:24;5.18;;;2.22;;
34541;SDS011;20784;51.332;12.410;2022-07-29T00:41:50;8.55;;;2.28;;
34541;SDS011;20784;51.332;12.410;2022-07-29T00:44:16;6.47;;;2.08;;
34541;SDS011;20784;51.332;12.410;2022-07-29T00:46:47;8.98;;;2.00;;
34541;SDS011;20784;51.332;12.410;2022-07-29T00:49:16;4.47;;;1.90;;
34541;SDS011;20784;51.332;12.410;2022-07-29T00:51:47;4.82;;;1.90;;
34541;SDS011;20784;51.332;12.410;2022-07-29T00:54:38;5.10;;;1.58;;
34541;SDS011;20784;51.332;12.410;2022-07-29T00:57:09;6.93;;;1.88;;
34541;SDS011;20784;51.332;12.410;2022-07-29T00:59:43;5.10;;;2.22;;
34541;SDS011;20784;51.332;12.410;2022-07-29T01:02:14;6.05;;;1.63;;
34541;SDS011;20784;51.332;12.410;2022-07-29T01:04:50;8.90;;;2.20;;
34541;SDS011;20784;51.332;12.410;2022-07-29T01:07:17;6.72;;;2.00;;
34541;SDS011;20784;51.332;12.410;2022-07-29T01:10:30;18.13;;;1.70;;
34541;SDS011;20784;51.332;12.410;2022-07-29T01:13:10;8.50;;;1.80;;
34541;SDS011;20784;51.332;12.410;2022-07-29T01:16:00;7.28;;;1.60;;
34541;SDS011;20784;51.332;12.410;2022-07-29T01:18:44;5.35;;;2.00;;
34541;SDS011;20784;51.332;12.410;2022-07-29T01:31:02;5.95;;;1.85;;
34541;SDS011;20784;51.332;12.410;2022-07-29T01:36:43;5.38;;;1.88;;
34541;SDS011;20784;51.332;12.410;2022-07-29T01:39:33;4.70;;;1.77;;
34541;SDS011;20784;51.332;12.410;2022-07-29T01:42:23;9.90;;;2.38;;
34541;SDS011;20784;51.332;12.410;2022-07-29T01:45:22;7.40;;;1.95;;
34541;SDS011;20784;51.332;12.410;2022-07-29T01:48:37;5.72;;;2.17;;
34541;SDS011;20784;51.332;12.410;2022-07-29T01:51:25;6.13;;;2.10;;
34541;SDS011;20784;51.332;12.410;2022-07-29T01:56:57;4.63;;;1.95;;
34541;SDS011;20784;51.332;12.410;2022-07-29T01:59:24;7.40;;;2.30;;
34541;SDS011;20784;51.332;12.410;2022-07-29T02:01:58;9.80;;;;;
34541;SDS011;20784;51.332;12.410;2022-07-29T02:04:33;6.60;;;2.00;;
34541;SDS011;20784;51.332;12.410;2022-07-29T02:07:04;6.90;;;2.03;;
34541;SDS011;20784;51.332;12.410;2022-07-29T02:09:36;12.40;;;2.50;;
34541;SDS011;20784;51.332;12.410;2022-07-29T02:12:11;3.22;;;1.80;;
34541;SDS011;20784;51.332;12.410;2022-07-29T02:14:47;5.05;;;2.15;;
34541;SDS011;20784;51.332;12.410;2022-07-29T02:17:23;7.75;;;2.20;;
34541;SDS011;20784;51.332;12.410;2022-07-29T02:20:03;6.55;;;1.88;;
34541;SDS011;20784;51.332;12.410;2022-07-29T02:23:10;7.75;;;2.17;;
34541;SDS011;20784;51.332;12.410;2022-07-29T02:25:50;7.28;;;2.00;;
34541;SDS011;20784;51.332;12.410;2022-07-29T02:29:07;6.38;;;1.90;;
34541;SDS011;20784;51.332;12.410;2022-07-29T02:37:44;6.13;;;2.00;;
34541;SDS011;20784;51.332;12.410;2022-07-29T02:40:56;11.88;;;2.67;;
34541;SDS011;20784;51.332;12.410;2022-07-29T02:43:33;3.92;;;2.00;;
34541;SDS011;20784;51.332;12.410;2022-07-29T02:50:29;10.52;;;2.05;;
34541;SDS011;20784;51.332;12.410;2022-07-29T02:53:54;5.00;;;2.13;;
34541;SDS011;20784;51.332;12.410;2022-07-29T02:56:29;6.45;;;2.05;;
34541;SDS011;20784;51.332;12.410;2022-07-29T02:59:03;6.22;;;2.00;;
34541;SDS011;20784;51.332;12.410;2022-07-29T03:01:43;7.45;;;1.95;;
34541;SDS011;20784;51.332;12.410;2022-07-29T03:07:40;6.18;;;2.40;;
34541;SDS011;20784;51.332;12.410;2022-07-29T03:10:37;9.45;;;1.77;;
34541;SDS011;20784;51.332;12.410;2022-07-29T03:13:43;6.60;;;1.85;;
34541;SDS011;20784;51.332;12.410;2022-07-29T03:16:17;3.80;;;1.90;;
34541;SDS011;20784;51.332;12.410;2022-07-29T03:19:16;7.72;;;1.95;;
34541;SDS011;20784;51.332;12.410;2022-07-29T03:25:57;4.30;;;1.83;;
34541;SDS011;20784;51.332;12.410;2022-07-29T03:28:57;6.65;;;1.90;;
34541;SDS011;20784;51.332;12.410;2022-07-29T03:37:27;3.70;;;1.58;;
34541;SDS011;20784;51.332;12.410;2022-07-29T03:40:02;12.57;;;2.33;;
34541;SDS011;20784;51.332;12.410;2022-07-29T03:42:51;5.00;;;1.98;;
34541;SDS011;20784;51.332;12.410;2022-07-29T03:45:22;5.07;;;1.83;;
34541;SDS011;20784;51.332;12.410;2022-07-29T03:48:01;15.13;;;2.15;;
34541;SDS011;20784;51.332;12.410;2022-07-29T03:50:43;8.32;;;2.00;;
34541;SDS011;20784;51.332;12.410;2022-07-29T03:57:30;6.32;;;2.10;;
34541;SDS011;20784;51.332;12.410;2022-07-29T04:00:03;7.03;;;1.65;;
34541;SDS011;20784;51.332;12.410;2022-07-29T04:02:53;11.68;;;2.50;;
34541;SDS011;20784;51.332;12.410;2022-07-29T04:05:25;11.55;;;1.90;;
34541;SDS011;20784;51.332;12.410;2022-07-29T04:11:16;18.38;;;2.35;;
34541;SDS011;20784;51.332;12.410;2022-07-29T04:13:44;8.95;;;1.90;;
34541;SDS011;20784;51.332;12.410;2022-07-29T04:16:22;6.32;;;2.35;;
34541;SDS011;20784;51.332;12.410;2022-07-29T04:19:13;9.55;;;2.20;;
34541;SDS011;20784;51.332;12.410;2022-07-29T04:22:06;3.30;;;1.67;;
34541;SDS011;20784;51.332;12.410;2022-07-29T04:24:37;5.75;;;2.25;;
34541;SDS011;20784;51.332;12.410;2022-07-29T04:27:03;8.02;;;1.95;;
34541;SDS011;20784;51.332;12.410;2022-07-29T04:29:34;8.90;;;2.45;;
34541;SDS011;20784;51.332;12.410;2022-07-29T04:37:06;5.28;;;2.15;;
34541;SDS011;20784;51.332;12.410;2022-07-29T04:39:34;4.38;;;2.30;;
34541;SDS011;20784;51.332;12.410;2022-07-29T04:42:23;6.03;;;2.10;;
34541;SDS011;20784;51.332;12.410;2022-07-29T04:48:09;5.10;;;2.17;;
34541;SDS011;20784;51.332;12.410;2022-07-29T04:51:01;6.10;;;2.10;;
34541;SDS011;20784;51.332;12.410;2022-07-29T04:53:29;11.02;;;2.30;;
34541;SDS011;20784;51.332;12.410;2022-07-29T04:56:01;6.93;;;2.65;;
34541;SDS011;20784;51.332;12.410;2022-07-29T04:58:38;13.50;;;3.25;;
34541;SDS011;20784;51.332;12.410;2022-07-29T05:01:04;8.57;;;2.45;;
34541;SDS011;20784;51.332;12.410;2022-07-29T05:03:44;6.40;;;2.35;;
34541;SDS011;20784;51.332;12.410;2022-07-29T05:06:23;11.77;;;2.70;;
34541;SDS011;20784;51.332;12.410;2022-07-29T05:09:20;9.25;;;2.88;;
34541;SDS011;20784;51.332;12.410;2022-07-29T05:11:53;11.48;;;2.55;;
34541;SDS011;20784;51.332;12.410;2022-07-29T05:14:21;8.10;;;2.45;;
34541;SDS011;20784;51.332;12.410;2022-07-29T05:16:47;9.10;;;2.45;;
34541;SDS011;20784;51.332;12.410;2022-07-29T05:19:16;7.53;;;2.75;;
34541;SDS011;20784;51.332;12.410;2022-07-29T05:21:44;6.43;;;2.13;;
34541;SDS011;20784;51.332;12.410;2022-07-29T05:24:10;8.52;;;2.70;;
34541;SDS011;20784;51.332;12.410;2022-07-29T05:26:36;7.88;;;2.97;;
34541;SDS011;20784;51.332;12.410;2022-07-29T05:29:02;14.93;;;2.47;;
34541;SDS011;20784;51.332;12.410;2022-07-29T05:31:30;11.07;;;2.38;;
34541;SDS011;20784;51.332;12.410;2022-07-29T05:34:14;7.68;;;2.38;;
34541;SDS011;20784;51.332;12.410;2022-07-29T05:36:44;4.53;;;2.42;;
34541;SDS011;20784;51.332;12.410;2022-07-29T05:39:18;8.00;;;2.75;;
34541;SDS011;20784;51.332;12.410;2022-07-29T05:41:44;9.57;;;2.92;;
34541;SDS011;20784;51.332;12.410;2022-07-29T05:44:13;5.28;;;2.20;;
34541;SDS011;20784;51.332;12.410;2022-07-29T05:46:39;13.30;;;2.58;;
34541;SDS011;20784;51.332;12.410;2022-07-29T05:49:05;9.90;;;2.40;;
34541;SDS011;20784;51.332;12.410;2022-07-29T05:51:41;14.60;;;2.72;;
34541;SDS011;20784;51.332;12.410;2022-07-29T05:54:16;7.65;;;2.67;;
34541;SDS011;20784;51.332;12.410;2022-07-29T05:56:50;10.05;;;2.28;;
34541;SDS011;20784;51.332;12.410;2022-07-29T05:59:18;12.25;;;2.95;;
34541;SDS011;20784;51.332;12.410;2022-07-29T06:01:57;12.77;;;2.75;;
34541;SDS011;20784;51.332;12.410;2022-07-29T06:04:42;19.65;;;3.65;;
34541;SDS011;20784;51.332;12.410;2022-07-29T06:07:59;10.45;;;2.90;;
34541;SDS011;20784;51.332;12.410;2022-07-29T06:38:30;12.15;;;2.70;;
34541;SDS011;20784;51.332;12.410;2022-07-29T06:48:05;14.88;;;2.80;;
34541;SDS011;20784;51.332;12.410;2022-07-29T06:56:54;20.60;;;2.83;;
34541;SDS011;20784;51.332;12.410;2022-07-29T06:59:20;15.23;;;2.95;;
34541;SDS011;20784;51.332;12.410;2022-07-29T07:04:49;15.07;;;3.05;;
34541;SDS011;20784;51.332;12.410;2022-07-29T07:07:39;11.40;;;2.55;;
34541;SDS011;20784;51.332;12.410;2022-07-29T07:19:55;19.38;;;2.67;;
34541;SDS011;20784;51.332;12.410;2022-07-29T07:22:36;11.15;;;3.03;;
34541;SDS011;20784;51.332;12.410;2022-07-29T07:28:53;12.80;;;3.00;;
34541;SDS011;20784;51.332;12.410;2022-07-29T07:31:33;13.75;;;3.10;;
34541;SDS011;20784;51.332;12.410;2022-07-29T07:34:15;8.35;;;3.03;;
34541;SDS011;20784;51.332;12.410;2022-07-29T07:39:17;9.40;;;3.10;;
34541;SDS011;20784;51.332;12.410;2022-07-29T07:42:05;11.05;;;3.92;;
34541;SDS011;20784;51.332;12.410;2022-07-29T07:45:06;14.15;;;3.97;;
34541;SDS011;20784;51.332;12.410;2022-07-29T07:47:43;12.05;;;4.60;;
34541;SDS011;20784;51.332;12.410;2022-07-29T07:57:37;15.50;;;3.72;;
34541;SDS011;20784;51.332;12.410;2022-07-29T08:00:03;13.43;;;4.22;;
34541;SDS011;20784;51.332;12.410;2022-07-29T08:03:01;13.00;;;4.15;;
34541;SDS011;20784;51.332;12.410;2022-07-29T08:05:36;15.30;;;3.47;;
34541;SDS011;20784;51.332;12.410;2022-07-29T08:08:18;9.27;;;3.65;;
34541;SDS011;20784;51.332;12.410;2022-07-29T08:11:29;13.95;;;4.35;;
34541;SDS011;20784;51.332;12.410;2022-07-29T08:14:26;17.73;;;3.72;;
34541;SDS011;20784;51.332;12.410;2022-07-29T08:17:14;16.65;;;4.50;;
34541;SDS011;20784;51.332;12.410;2022-07-29T08:22:46;13.25;;;3.72;;
34541;SDS011;20784;51.332;12.410;2022-07-29T08:25:44;14.70;;;3.95;;
34541;SDS011;20784;51.332;12.410;2022-07-29T08:28:57;8.85;;;3.63;;
34541;SDS011;20784;51.332;12.410;2022-07-29T08:31:25;9.55;;;3.40;;
34541;SDS011;20784;51.332;12.410;2022-07-29T08:37:06;22.75;;;3.95;;
34541;SDS011;20784;51.332;12.410;2022-07-29T08:39:37;12.35;;;3.15;;
34541;SDS011;20784;51.332;12.410;2022-07-29T08:42:50;19.65;;;3.65;;
34541;SDS011;20784;51.332;12.410;2022-07-29T08:46:08;11.82;;;2.75;;
34541;SDS011;20784;51.332;12.410;2022-07-29T08:52:45;6.97;;;3.10;;
34541;SDS011;20784;51.332;12.410;2022-07-29T09:02:27;14.82;;;3.85;;
34541;SDS011;20784;51.332;12.410;2022-07-29T09:08:48;10.57;;;4.20;;
34541;SDS011;20784;51.332;12.410;2022-07-29T09:14:56;16.10;;;5.07;;
34541;SDS011;20784;51.332;12.410;2022-07-29T09:17:41;13.63;;;5.15;;
34541;SDS011;20784;51.332;12.410;2022-07-29T09:20:29;12.98;;;5.95;;
34541;SDS011;20784;51.332;12.410;2022-07-29T09:23:26;17.25;;;5.55;;
34541;SDS011;20784;51.332;12.410;2022-07-29T09:26:23;9.20;;;4.85;;
34541;SDS011;20784;51.332;12.410;2022-07-29T09:28:57;14.90;;;4.85;;
34541;SDS011;20784;51.332;12.410;2022-07-29T09:31:52;13.13;;;4.38;;
34541;SDS011;20784;51.332;12.410;2022-07-29T09:41:06;15.90;;;5.00;;
34541;SDS011;20784;51.332;12.410;2022-07-29T09:44:04;16.67;;;5.07;;
34541;SDS011;20784;51.332;12.410;2022-07-29T09:46:56;12.77;;;4.65;;
34541;SDS011;20784;51.332;12.410;2022-07-29T09:53:05;11.07;;;3.92;;
34541;SDS011;20784;51.332;12.410;2022-07-29T09:55:56;10.65;;;4.05;;
34541;SDS011;20784;51.332;12.410;2022-07-29T09:58:42;11.73;;;4.32;;
34541;SDS011;20784;51.332;12.410;2022-07-29T10:12:05;11.95;;;3.38;;
34541;SDS011;20784;51.332;12.410;2022-07-29T10:15:22;6.22;;;2.90;;
34541;SDS011;20784;51.332;12.410;2022-07-29T10:41:02;10.05;;;2.35;;
34541;SDS011;20784;51.332;12.410;2022-07-29T12:45:08;19.23;;;3.60;;
34541;SDS011;20784;51.332;12.410;2022-07-29T12:55:13;8.02;;;3.80;;
34541;SDS011;20784;51.332;12.410;2022-07-29T13:01:15;9.98;;;3.22;;
34541;SDS011;20784;51.332;12.410;2022-07-29T13:04:10;13.02;;;3.88;;
34541;SDS011;20784;51.332;12.410;2022-07-29T13:19:40;10.45;;;4.13;;
34541;SDS011;20784;51.332;12.410;2022-07-29T13:22:53;9.50;;;3.63;;
34541;SDS011;20784;51.332;12.410;2022-07-29T13:28:54;5.82;;;3.78;;
34541;SDS011;20784;51.332;12.410;2022-07-29T13:37:59;11.60;;;3.15;;
34541;SDS011;20784;51.332;12.410;2022-07-29T14:02:47;10.20;;;4.38;;
34541;SDS011;20784;51.332;12.410;2022-07-29T14:18:40;11.73;;;3.50;;
34541;SDS011;20784;51.332;12.410;2022-07-29T14:21:50;9.90;;;4.15;;
34541;SDS011;20784;51.332;12.410;2022-07-29T14:30:47;8.10;;;3.45;;
34541;SDS011;20784;51.332;12.410;2022-07-29T14:34:05;10.63;;;4.13;;
34541;SDS011;20784;51.332;12.410;2022-07-29T14:40:10;8.35;;;3.38;;
34541;SDS011;20784;51.332;12.410;2022-07-29T14:45:50;11.80;;;3.50;;
34541;SDS011;20784;51.332;12.410;2022-07-29T14:51:48;7.40;;;3.42;;
34541;SDS011;20784;51.332;12.410;2022-07-29T14:57:39;7.40;;;4.15;;
34541;SDS011;20784;51.332;12.410;2022-07-29T15:00:36;11.10;;;3.67;;
34541;SDS011;20784;51.332;12.410;2022-07-29T15:03:23;11.00;;;3.83;;
34541;SDS011;20784;51.332;12.410;2022-07-29T15:06:14;9.80;;;3.70;;
34541;SDS011;20784;51.332;12.410;2022-07-29T15:09:00;10.23;;;3.70;;
34541;SDS011;20784;51.332;12.410;2022-07-29T15:11:54;9.20;;;3.67;;
34541;SDS011;20784;51.332;12.410;2022-07-29T15:14:37;11.43;;;3.97;;
34541;SDS011;20784;51.332;12.410;2022-07-29T15:17:24;6.63;;;3.63;;
34541;SDS011;20784;51.332;12.410;2022-07-29T15:19:55;11.93;;;3.67;;
34541;SDS011;20784;51.332;12.410;2022-07-29T15:22:50;13.43;;;3.97;;
34541;SDS011;20784;51.332;12.410;2022-07-29T15:25:25;11.63;;;4.22;;
34541;SDS011;20784;51.332;12.410;2022-07-29T15:27:59;8.52;;;3.72;;
34541;SDS011;20784;51.332;12.410;2022-07-29T15:30:47;7.82;;;3.92;;
34541;SDS011;20784;51.332;12.410;2022-07-29T15:33:18;7.68;;;4.13;;
34541;SDS011;20784;51.332;12.410;2022-07-29T15:36:10;9.07;;;3.70;;
34541;SDS011;20784;51.332;12.410;2022-07-29T15:41:59;5.90;;;4.15;;
34541;SDS011;20784;51.332;12.410;2022-07-29T15:44:50;6.97;;;3.83;;
34541;SDS011;20784;51.332;12.410;2022-07-29T15:48:06;5.90;;;3.10;;
34541;SDS011;20784;51.332;12.410;2022-07-29T15:50:55;10.32;;;2.72;;
34541;SDS011;20784;51.332;12.410;2022-07-29T15:53:41;14.40;;;3.75;;
34541;SDS011;20784;51.332;12.410;2022-07-29T15:56:36;9.18;;;3.50;;
34541;SDS011;20784;51.332;12.410;2022-07-29T16:02:52;12.35;;;3.20;;
34541;SDS011;20784;51.332;12.410;2022-07-29T16:08:18;11.75;;;3.10;;
34541;SDS011;20784;51.332;12.410;2022-07-29T16:11:12;5.28;;;2.72;;
34541;SDS011;20784;51.332;12.410;2022-07-29T16:14:23;7.47;;;3.28;;
34541;SDS011;20784;51.332;12.410;2022-07-29T16:17:14;10.55;;;2.70;;
34541;SDS011;20784;51.332;12.410;2022-07-29T16:19:59;5.93;;;2.95;;
34541;SDS011;20784;51.332;12.410;2022-07-29T16:22:47;7.45;;;2.90;;
34541;SDS011;20784;51.332;12.410;2022-07-29T16:25:17;7.47;;;2.97;;
34541;SDS011;20784;51.332;12.410;2022-07-29T16:27:53;9.00;;;3.20;;
34541;SDS011;20784;51.332;12.410;2022-07-29T16:30:22;6.38;;;3.03;;
34541;SDS011;20784;51.332;12.410;2022-07-29T16:32:53;5.78;;;3.25;;
34541;SDS011;20784;51.332;12.410;2022-07-29T16:35:25;5.00;;;3.45;;
34541;SDS011;20784;51.332;12.410;2022-07-29T16:38:25;6.97;;;3.58;;
34541;SDS011;20784;51.332;12.410;2022-07-29T16:41:15;5.97;;;3.42;;
34541;SDS011;20784;51.332;12.410;2022-07-29T16:46:59;6.43;;;3.20;;
34541;SDS011;20784;51.332;12.410;2022-07-29T16:49:45;5.10;;;3.10;;
34541;SDS011;20784;51.332;12.410;2022-07-29T16:52:24;9.80;;;3.60;;
34541;SDS011;20784;51.332;12.410;2022-07-29T16:55:12;9.70;;;3.28;;
34541;SDS011;20784;51.332;12.410;2022-07-29T16:57:38;3.42;;;2.80;;
34541;SDS011;20784;51.332;12.410;2022-07-29T17:00:15;5.78;;;3.33;;
34541;SDS011;20784;51.332;12.410;2022-07-29T17:03:01;3.45;;;2.90;;
34541;SDS011;20784;51.332;12.410;2022-07-29T17:05:29;5.00;;;2.95;;
34541;SDS011;20784;51.332;12.410;2022-07-29T17:08:10;10.65;;;5.00;;
34541;SDS011;20784;51.332;12.410;2022-07-29T17:13:51;19.45;;;11.30;;
34541;SDS011;20784;51.332;12.410;2022-07-29T17:16:34;11.13;;;3.30;;
34541;SDS011;20784;51.332;12.410;2022-07-29T17:19:11;4.70;;;3.00;;
34541;SDS011;20784;51.332;12.410;2022-07-29T17:21:37;5.82;;;2.83;;
34541;SDS011;20784;51.332;12.410;2022-07-29T17:24:02;7.07;;;3.40;;
34541;SDS011;20784;51.332;12.410;2022-07-29T17:29:02;6.32;;;2.40;;
34541;SDS011;20784;51.332;12.410;2022-07-29T17:31:27;3.95;;;3.10;;
34541;SDS011;20784;51.332;12.410;2022-07-29T17:34:03;6.70;;;2.55;;
34541;SDS011;20784;51.332;12.410;2022-07-29T17:36:33;5.20;;;3.00;;
34541;SDS011;20784;51.332;12.410;2022-07-29T17:39:27;5.68;;;2.60;;
34541;SDS011;20784;51.332;12.410;2022-07-29T17:42:02;8.20;;;2.85;;
34541;SDS011;20784;51.332;12.410;2022-07-29T17:44:33;4.90;;;2.90;;
34541;SDS011;20784;51.332;12.410;2022-07-29T17:47:18;7.85;;;3.92;;
34541;SDS011;20784;51.332;12.410;2022-07-29T17:49:47;10.70;;;5.43;;
34541;SDS011;20784;51.332;12.410;2022-07-29T17:52:21;6.82;;;4.15;;
34541;SDS011;20784;51.332;12.410;2022-07-29T17:54:56;8.38;;;4.15;;
34541;SDS011;20784;51.332;12.410;2022-07-29T17:57:43;10.90;;;5.53;;
34541;SDS011;20784;51.332;12.410;2022-07-29T18:00:12;5.72;;;3.33;;
34541;SDS011;20784;51.332;12.410;2022-07-29T18:02:41;8.45;;;3.47;;
34541;SDS011;20784;51.332;12.410;2022-07-29T18:05:09;3.40;;;2.70;;
34541;SDS011;20784;51.332;12.410;2022-07-29T18:07:35;5.55;;;3.30;;
34541;SDS011;20784;51.332;12.410;2022-07-29T18:10:27;5.88;;;3.22;;
34541;SDS011;20784;51.332;12.410;2022-07-29T18:13:05;4.38;;;2.80;;
34541;SDS011;20784;51.332;12.410;2022-07-29T18:15:36;4.95;;;2.88;;
34541;SDS011;20784;51.332;12.410;2022-07-29T18:18:07;7.35;;;3.63;;
34541;SDS011;20784;51.332;12.410;2022-07-29T18:20:33;4.47;;;2.97;;
34541;SDS011;20784;51.332;12.410;2022-07-29T18:23:04;4.53;;;3.08;;
34541;SDS011;20784;51.332;12.410;2022-07-29T18:25:36;7.50;;;3.00;;
34541;SDS011;20784;51.332;12.410;2022-07-29T18:28:03;5.63;;;2.92;;
34541;SDS011;20784;51.332;12.410;2022-07-29T18:30:39;5.97;;;3.22;;
34541;SDS011;20784;51.332;12.410;2022-07-29T18:33:22;4.50;;;3.25;;
34541;SDS011;20784;51.332;12.410;2022-07-29T18:35:53;12.55;;;3.40;;
34541;SDS011;20784;51.332;12.410;2022-07-29T18:38:19;6.55;;;3.08;;
34541;SDS011;20784;51.332;12.410;2022-07-29T18:40:56;17.65;;;4.22;;
34541;SDS011;20784;51.332;12.410;2022-07-29T18:43:22;14.90;;;3.97;;
34541;SDS011;20784;51.332;12.410;2022-07-29T18:45:55;13.35;;;3.60;;
34541;SDS011;20784;51.332;12.410;2022-07-29T18:51:26;9.48;;;3.63;;
34541;SDS011;20784;51.332;12.410;2022-07-29T18:53:52;9.98;;;3.63;;
34541;SDS011;20784;51.332;12.410;2022-07-29T18:56:23;5.57;;;3.28;;
34541;SDS011;20784;51.332;12.410;2022-07-29T19:01:54;6.20;;;3.40;;
34541;SDS011;20784;51.332;12.410;2022-07-29T19:04:20;6.82;;;3.40;;
34541;SDS011;20784;51.332;12.410;2022-07-29T19:07:01;13.95;;;4.18;;
34541;SDS011;20784;51.332;12.410;2022-07-29T19:09:45;6.55;;;3.67;;
34541;SDS011;20784;51.332;12.410;2022-07-29T19:12:41;16.92;;;4.20;;
34541;SDS011;20784;51.332;12.410;2022-07-29T19:15:07;16.20;;;4.00;;
34541;SDS011;20784;51.332;12.410;2022-07-29T19:17:37;14.35;;;4.40;;
34541;SDS011;20784;51.332;12.410;2022-07-29T19:20:03;10.43;;;4.15;;
34541;SDS011;20784;51.332;12.410;2022-07-29T19:22:43;10.82;;;4.35;;
34541;SDS011;20784;51.332;12.410;2022-07-29T19:28:52;12.52;;;3.50;;
34541;SDS011;20784;51.332;12.410;2022-07-29T19:31:39;8.38;;;3.70;;
34541;SDS011;20784;51.332;12.410;2022-07-29T19:34:15;12.65;;;3.65;;
34541;SDS011;20784;51.332;12.410;2022-07-29T19:37:13;7.63;;;3.85;;
34541;SDS011;20784;51.332;12.410;2022-07-29T19:43:45;10.43;;;3.95;;
34541;SDS011;20784;51.332;12.410;2022-07-29T19:46:52;12.10;;;4.18;;
34541;SDS011;20784;51.332;12.410;2022-07-29T19:49:47;6.38;;;3.80;;
34541;SDS011;20784;51.332;12.410;2022-07-29T19:52:49;12.10;;;4.50;;
34541;SDS011;20784;51.332;12.410;2022-07-29T19:55:39;7.05;;;4.32;;
34541;SDS011;20784;51.332;12.410;2022-07-29T19:58:08;5.60;;;3.55;;
34541;SDS011;20784;51.332;12.410;2022-07-29T20:00:57;7.40;;;3.88;;
34541;SDS011;20784;51.332;12.410;2022-07-29T20:03:34;11.27;;;3.88;;
34541;SDS011;20784;51.332;12.410;2022-07-29T20:06:06;13.40;;;4.25;;
34541;SDS011;20784;51.332;12.410;2022-07-29T20:08:44;15.30;;;4.47;;
34541;SDS011;20784;51.332;12.410;2022-07-29T20:11:20;8.10;;;3.78;;
34541;SDS011;20784;51.332;12.410;2022-07-29T20:13:53;5.85;;;4.00;;
34541;SDS011;20784;51.332;12.410;2022-07-29T20:16:21;6.75;;;3.70;;
34541;SDS011;20784;51.332;12.410;2022-07-29T20:18:53;8.95;;;3.63;;
34541;SDS011;20784;51.332;12.410;2022-07-29T20:21:21;5.43;;;4.03;;
34541;SDS011;20784;51.332;12.410;2022-07-29T20:23:50;10.65;;;4.53;;
34541;SDS011;20784;51.332;12.410;2022-07-29T20:26:41;9.93;;;3.75;;
34541;SDS011;20784;51.332;12.410;2022-07-29T20:29:32;7.85;;;4.30;;
34541;SDS011;20784;51.332;12.410;2022-07-29T20:32:05;9.20;;;3.58;;
34541;SDS011;20784;51.332;12.410;2022-07-29T20:34:49;10.45;;;4.20;;
34541;SDS011;20784;51.332;12.410;2022-07-29T20:37:15;10.63;;;4.55;;
34541;SDS011;20784;51.332;12.410;2022-07-29T20:39:44;7.63;;;3.85;;
34541;SDS011;20784;51.332;12.410;2022-07-29T20:42:13;5.00;;;3.33;;
34541;SDS011;20784;51.332;12.410;2022-07-29T20:44:41;5.75;;;4.15;;
34541;SDS011;20784;51.332;12.410;2022-07-29T20:49:48;8.75;;;4.40;;
34541;SDS011;20784;51.332;12.410;2022-07-29T20:52:20;9.07;;;4.55;;
34541;SDS011;20784;51.332;12.410;2022-07-29T20:54:48;9.02;;;4.65;;
34541;SDS011;20784;51.332;12.410;2022-07-29T20:57:16;7.65;;;3.92;;
34541;SDS011;20784;51.332;12.410;2022-07-29T20:59:55;6.85;;;4.10;;
34541;SDS011;20784;51.332;12.410;2022-07-29T21:02:21;7.68;;;4.38;;
34541;SDS011;20784;51.332;12.410;2022-07-29T21:04:49;12.57;;;4.38;;
34541;SDS011;20784;51.332;12.410;2022-07-29T21:07:18;6.47;;;3.83;;
34541;SDS011;20784;51.332;12.410;2022-07-29T21:09:46;5.95;;;3.88;;
34541;SDS011;20784;51.332;12.410;2022-07-29T21:12:14;7.07;;;3.78;;
34541;SDS011;20784;51.332;12.410;2022-07-29T21:14:41;7.72;;;3.60;;
34541;SDS011;20784;51.332;12.410;2022-07-29T21:17:13;8.57;;;3.63;;
34541;SDS011;20784;51.332;12.410;2022-07-29T21:19:42;6.53;;;3.28;;
34541;SDS011;20784;51.332;12.410;2022-07-29T21:22:11;5.75;;;3.45;;
34541;SDS011;20784;51.332;12.410;2022-07-29T21:24:43;4.57;;;3.40;;
34541;SDS011;20784;51.332;12.410;2022-07-29T21:27:15;7.97;;;4.32;;
34541;SDS011;20784;51.332;12.410;2022-07-29T21:30:02;6.20;;;3.60;;
34541;SDS011;20784;51.332;12.410;2022-07-29T21:32:31;12.98;;;3.50;;
34541;SDS011;20784;51.332;12.410;2022-07-29T21:35:00;8.60;;;4.13;;
34541;SDS011;20784;51.332;12.410;2022-07-29T21:37:43;7.15;;;4.03;;
34541;SDS011;20784;51.332;12.410;2022-07-29T21:40:22;15.50;;;5.50;;
34541;SDS011;20784;51.332;12.410;2022-07-29T21:42:51;12.60;;;5.35;;
34541;SDS011;20784;51.332;12.410;2022-07-29T21:45:21;14.60;;;6.18;;
34541;SDS011;20784;51.332;12.410;2022-07-29T21:47:50;16.30;;;5.68;;
34541;SDS011;20784;51.332;12.410;2022-07-29T21:50:18;13.68;;;5.88;;
34541;SDS011;20784;51.332;12.410;2022-07-29T21:53:04;17.48;;;5.53;;
34541;SDS011;20784;51.332;12.410;2022-07-29T21:58:59;11.35;;;5.35;;
34541;SDS011;20784;51.332;12.410;2022-07-29T22:01:39;12.95;;;5.72;;
34541;SDS011;20784;51.332;12.410;2022-07-29T22:04:08;8.73;;;5.07;;
34541;SDS011;20784;51.332;12.410;2022-07-29T22:06:45;16.52;;;5.35;;
34541;SDS011;20784;51.332;12.410;2022-07-29T22:09:23;10.05;;;5.35;;
34541;SDS011;20784;51.332;12.410;2022-07-29T22:11:49;7.50;;;4.30;;
34541;SDS011;20784;51.332;12.410;2022-07-29T22:14:24;7.38;;;4.43;;
34541;SDS011;20784;51.332;12.410;2022-07-29T22:16:58;10.45;;;4.70;;
34541;SDS011;20784;51.332;12.410;2022-07-29T22:19:27;7.40;;;4.00;;
34541;SDS011;20784;51.332;12.410;2022-07-29T22:21:56;8.70;;;4.30;;
34541;SDS011;20784;51.332;12.410;2022-07-29T22:24:27;9.35;;;4.35;;
34541;SDS011;20784;51.332;12.410;2022-07-29T22:26:55;7.95;;;4.78;;
34541;SDS011;20784;51.332;12.410;2022-07-29T22:29:23;12.25;;;4.15;;
34541;SDS011;20784;51.332;12.410;2022-07-29T22:31:52;7.88;;;4.35;;
34541;SDS011;20784;51.332;12.410;2022-07-29T22:34:25;7.75;;;4.07;;
34541;SDS011;20784;51.332;12.410;2022-07-29T22:37:02;8.93;;;4.40;;
34541;SDS011;20784;51.332;12.410;2022-07-29T22:39:31;9.00;;;4.40;;
34541;SDS011;20784;51.332;12.410;2022-07-29T22:42:04;10.55;;;4.60;;
34541;SDS011;20784;51.332;12.410;2022-07-29T22:44:30;9.45;;;4.43;;
34541;SDS011;20784;51.332;12.410;2022-07-29T22:46:58;9.57;;;3.97;;
34541;SDS011;20784;51.332;12.410;2022-07-29T22:49:28;6.93;;;4.68;;
34541;SDS011;20784;51.332;12.410;2022-07-29T22:51:57;5.97;;;4.43;;
34541;SDS011;20784;51.332;12.410;2022-07-29T22:54:22;8.70;;;4.18;;
34541;SDS011;20784;51.332;12.410;2022-07-29T22:57:03;4.55;;;4.13;;
34541;SDS011;20784;51.332;12.410;2022-07-29T22:59:50;7.25;;;4.60;;
34541;SDS011;20784;51.332;12.410;2022-07-29T23:02:15;13.40;;;4.38;;
34541;SDS011;20784;51.332;12.410;2022-07-29T23:04:46;6.95;;;4.10;;
34541;SDS011;20784;51.332;12.410;2022-07-29T23:07:12;5.38;;;4.18;;
34541;SDS011;20784;51.332;12.410;2022-07-29T23:09:38;5.28;;;4.13;;